createdAt,value
2023-08-09T00:02:24.408Z,98114.58
2023-08-09T00:04:51.336Z,98115.89
2023-08-09T00:07:17.941Z,98115.03
2023-08-09T00:09:44.836Z,98112.27
2023-08-09T00:12:11.784Z,98110.27
2023-08-09T00:14:38.498Z,98110.88
2023-08-09T00:17:05.405Z,98113.87
2023-08-09T00:19:32.273Z,98113.92
2023-08-09T00:21:59.427Z,98116.30
2023-08-09T00:24:26.237Z,98113.63
2023-08-09T00:26:53.333Z,98112.63
2023-08-09T00:29:20.331Z,98113.77
2023-08-09T00:31:47.305Z,98110.94
2023-08-09T00:34:14.211Z,98110.30
2023-08-09T00:36:41.037Z,98107.92
2023-08-09T00:39:08.922Z,98114.06
2023-08-09T00:41:35.846Z,98115.05
2023-08-09T00:44:02.770Z,98114.73
2023-08-09T00:46:29.696Z,98114.03
2023-08-09T00:48:56.741Z,98111.55
2023-08-09T00:51:24.248Z,98111.24
2023-08-09T00:53:51.323Z,98114.23
2023-08-09T00:56:18.461Z,98114.83
2023-08-09T00:58:45.508Z,98114.20
2023-08-09T01:01:12.319Z,98112.36
2023-08-09T01:03:39.497Z,98112.95
2023-08-09T01:06:24.908Z,98114.62
2023-08-09T01:09:03.757Z,98117.07
2023-08-09T01:11:42.018Z,98120.73
2023-08-09T01:14:12.621Z,98123.63
2023-08-09T01:16:39.749Z,98123.54
2023-08-09T01:19:16.196Z,98118.92
2023-08-09T01:21:44.288Z,98118.14
2023-08-09T01:24:13.189Z,98117.52
2023-08-09T01:26:40.648Z,98116.90
2023-08-09T01:29:07.892Z,98118.27
2023-08-09T01:31:34.816Z,98115.42
2023-08-09T01:34:03.582Z,98113.95
2023-08-09T01:36:36.825Z,98114.94
2023-08-09T01:39:11.582Z,98112.39
2023-08-09T01:41:40.025Z,98115.14
2023-08-09T01:44:08.783Z,98118.26
2023-08-09T01:46:36.310Z,98119.69
2023-08-09T01:49:10.287Z,98122.88
2023-08-09T01:51:37.515Z,98122.33
2023-08-09T01:54:05.096Z,98120.55
2023-08-09T01:56:32.061Z,98117.23
2023-08-09T01:59:00.061Z,98117.82
2023-08-09T02:01:27.282Z,98123.32
2023-08-09T02:03:54.763Z,98122.45
2023-08-09T02:06:21.991Z,98121.11
2023-08-09T02:08:49.553Z,98121.09
2023-08-09T02:11:16.626Z,98118.77
2023-08-09T02:13:44.081Z,98123.97
2023-08-09T02:16:11.178Z,98126.10
2023-08-09T02:18:39.454Z,98128.85
2023-08-09T02:21:06.409Z,98126.31
2023-08-09T02:23:33.508Z,98126.62
2023-08-09T02:26:00.255Z,98128.92
2023-08-09T02:28:27.201Z,98131.30
2023-08-09T02:30:54.781Z,98134.53
2023-08-09T02:33:21.764Z,98136.14
2023-08-09T02:35:54.109Z,98136.91
2023-08-09T02:38:21.978Z,98139.90
2023-08-09T02:40:51.485Z,98140.51
2023-08-09T02:43:19.922Z,98138.73
2023-08-09T02:45:46.971Z,98138.89
2023-08-09T02:48:14.142Z,98143.63
2023-08-09T02:50:41.757Z,98145.39
2023-08-09T02:53:11.975Z,98151.65
2023-08-09T02:55:39.091Z,98153.56
2023-08-09T02:58:06.317Z,98153.16
2023-08-09T03:00:34.534Z,98155.06
2023-08-09T03:03:05.198Z,98149.52
2023-08-09T03:05:33.089Z,98151.39
2023-08-09T03:07:59.950Z,98155.04
2023-08-09T03:10:27.238Z,98155.01
2023-08-09T03:12:54.031Z,98152.30
2023-08-09T03:15:22.605Z,98154.42
2023-08-09T03:17:49.561Z,98156.17
2023-08-09T03:20:17.718Z,98155.06
2023-08-09T03:22:45.776Z,98159.64
2023-08-09T03:25:13.541Z,98156.94
2023-08-09T03:27:43.870Z,98157.60
2023-08-09T03:30:11.560Z,98160.27
2023-08-09T03:32:38.763Z,98165.91
2023-08-09T03:35:07.711Z,98168.27
2023-08-09T03:37:35.616Z,98172.45
2023-08-09T03:40:04.656Z,98173.88
2023-08-09T03:42:31.469Z,98177.84
2023-08-09T03:44:58.504Z,98181.04
2023-08-09T03:47:25.230Z,98182.80
2023-08-09T03:49:52.315Z,98187.71
2023-08-09T03:52:19.134Z,98191.09
2023-08-09T03:54:46.033Z,98197.38
2023-08-09T03:57:12.909Z,98197.70
2023-08-09T03:59:39.830Z,98199.79
2023-08-09T04:02:06.856Z,98202.02
2023-08-09T04:04:35.270Z,98201.90
2023-08-09T04:07:02.906Z,98201.57
2023-08-09T04:09:29.924Z,98200.67
2023-08-09T04:11:56.959Z,98204.47
2023-08-09T04:14:24.547Z,98203.89
2023-08-09T04:16:51.678Z,98204.54
2023-08-09T04:19:18.658Z,98201.67
2023-08-09T04:21:45.597Z,98202.25
2023-08-09T04:24:13.448Z,98200.48
2023-08-09T04:26:40.191Z,98203.05
2023-08-09T04:29:07.744Z,98203.89
2023-08-09T04:31:34.786Z,98204.35
2023-08-09T04:34:01.725Z,98204.64
2023-08-09T04:36:28.955Z,98203.52
2023-08-09T04:38:56.045Z,98199.61
2023-08-09T04:41:22.877Z,98203.02
2023-08-09T04:43:50.327Z,98210.03
2023-08-09T04:46:18.103Z,98209.20
2023-08-09T04:48:46.097Z,98209.13
2023-08-09T04:51:13.280Z,98211.52
2023-08-09T04:53:40.158Z,98218.91
2023-08-09T04:56:08.166Z,98214.00
2023-08-09T04:58:35.434Z,98216.06
2023-08-09T05:01:02.489Z,98216.11
2023-08-09T05:03:30.604Z,98214.52
2023-08-09T05:05:57.626Z,98217.16
2023-08-09T05:08:24.437Z,98218.15
2023-08-09T05:10:52.288Z,98223.23
2023-08-09T05:13:20.677Z,98222.76
2023-08-09T05:15:47.467Z,98222.08
2023-08-09T05:18:14.439Z,98217.59
2023-08-09T05:20:41.403Z,98217.44
2023-08-09T05:23:08.646Z,98219.23
2023-08-09T05:25:35.794Z,98217.19
2023-08-09T05:28:03.075Z,98221.10
2023-08-09T05:30:30.102Z,98222.01
2023-08-09T05:32:59.277Z,98226.02
2023-08-09T05:35:29.662Z,98230.80
2023-08-09T05:37:56.845Z,98233.27
2023-08-09T05:40:23.798Z,98238.38
2023-08-09T05:42:50.696Z,98237.10
2023-08-09T05:45:18.204Z,98237.50
2023-08-09T05:47:45.114Z,98241.04
2023-08-09T05:50:12.126Z,98236.21
2023-08-09T05:52:39.098Z,98237.58
2023-08-09T05:55:06.871Z,98240.31
2023-08-09T05:57:34.398Z,98236.88
2023-08-09T06:00:01.301Z,98234.39
2023-08-09T06:02:28.506Z,98235.83
2023-08-09T06:04:55.472Z,98239.09
2023-08-09T06:07:22.285Z,98241.69
2023-08-09T06:09:49.082Z,98241.68
2023-08-09T06:12:15.956Z,98238.35
2023-08-09T06:14:42.998Z,98241.47
2023-08-09T06:17:10.280Z,98238.50
2023-08-09T06:19:37.162Z,98236.08
2023-08-09T06:22:04.599Z,98240.29
2023-08-09T06:24:32.090Z,98238.20
2023-08-09T06:26:59.226Z,98233.41
2023-08-09T06:29:26.168Z,98229.30
2023-08-09T06:31:52.984Z,98230.05
2023-08-09T06:34:19.843Z,98232.20
2023-08-09T06:36:46.771Z,98232.24
2023-08-09T06:39:13.615Z,98232.60
2023-08-09T06:41:40.537Z,98234.96
2023-08-09T06:44:07.415Z,98230.55
2023-08-09T06:46:34.400Z,98229.83
2023-08-09T06:49:01.293Z,98228.38
2023-08-09T06:51:28.499Z,98234.29
2023-08-09T06:53:55.300Z,98234.09
2023-08-09T06:56:22.353Z,98232.79
2023-08-09T06:58:49.627Z,98228.25
2023-08-09T07:01:16.641Z,98230.77
2023-08-09T07:03:44.297Z,98224.83
2023-08-09T07:06:11.275Z,98222.34
2023-08-09T07:08:38.698Z,98221.36
2023-08-09T07:11:05.785Z,98220.23
2023-08-09T07:13:32.875Z,98216.42
2023-08-09T07:15:59.958Z,98214.27
2023-08-09T07:18:27.354Z,98214.23
2023-08-09T07:20:54.227Z,98214.83
2023-08-09T07:23:35.982Z,98210.58
2023-08-09T07:26:08.962Z,98210.91
2023-08-09T07:28:36.225Z,98204.20
2023-08-09T07:31:03.821Z,98201.46
2023-08-09T07:33:31.044Z,98206.14
2023-08-09T07:35:58.061Z,98203.52
2023-08-09T07:38:25.466Z,98200.84
2023-08-09T07:40:52.787Z,98201.50
2023-08-09T07:43:21.806Z,98197.93
2023-08-09T07:45:50.143Z,98194.65
2023-08-09T07:48:17.234Z,98193.67
2023-08-09T07:50:44.366Z,98190.05
2023-08-09T07:53:11.420Z,98189.17
2023-08-09T07:55:39.926Z,98192.30
2023-08-09T07:58:07.159Z,98190.55
2023-08-09T08:00:46.736Z,98189.26
2023-08-09T08:03:15.898Z,98192.50
2023-08-09T08:05:43.593Z,98191.29
2023-08-09T08:08:11.684Z,98189.55
2023-08-09T08:10:39.017Z,98186.98
2023-08-09T08:13:06.006Z,98185.33
2023-08-09T08:15:32.923Z,98177.98
2023-08-09T08:17:59.729Z,98178.45
2023-08-09T08:20:26.603Z,98175.70
2023-08-09T08:22:54.096Z,98167.79
2023-08-09T08:25:21.255Z,98170.97
2023-08-09T08:27:48.094Z,98166.52
2023-08-09T08:30:20.389Z,98166.04
2023-08-09T08:32:49.088Z,98159.66
2023-08-09T08:35:20.872Z,98155.86
2023-08-09T08:37:53.832Z,98157.70
2023-08-09T08:40:23.935Z,98151.79
2023-08-09T08:42:51.923Z,98149.88
2023-08-09T08:45:19.987Z,98147.65
2023-08-09T08:47:48.251Z,98143.49
2023-08-09T08:50:16.864Z,98135.08
2023-08-09T08:52:47.431Z,98136.68
2023-08-09T08:55:15.490Z,98136.95
2023-08-09T08:57:46.620Z,98133.55
2023-08-09T09:00:26.053Z,98127.77
2023-08-09T09:02:57.396Z,98122.33
2023-08-09T09:05:24.472Z,98118.62
2023-08-09T09:07:53.301Z,98114.19
2023-08-09T09:10:21.650Z,98112.27
2023-08-09T09:12:56.324Z,98114.38
2023-08-09T09:15:24.562Z,98116.15
2023-08-09T09:17:52.001Z,98111.95
2023-08-09T09:20:30.317Z,98104.41
2023-08-09T09:22:57.594Z,98099.91
2023-08-09T09:25:25.109Z,98097.58
2023-08-09T09:27:57.534Z,98097.20
2023-08-09T09:30:25.772Z,98100.78
2023-08-09T09:33:05.678Z,98098.53
2023-08-09T09:35:34.040Z,98099.05
2023-08-09T09:38:02.900Z,98093.09
2023-08-09T09:40:43.122Z,98084.19
2023-08-09T09:43:10.938Z,98083.07
2023-08-09T09:45:38.366Z,98078.13
2023-08-09T09:48:18.913Z,98076.96
2023-08-09T09:50:45.950Z,98076.39
2023-08-09T09:53:14.870Z,98073.95
2023-08-09T09:55:42.208Z,98071.52
2023-08-09T09:58:09.198Z,98066.16
2023-08-09T10:00:38.547Z,98068.77
2023-08-09T10:03:05.543Z,98071.22
2023-08-09T10:05:41.601Z,98065.75
2023-08-09T10:08:14.117Z,98060.11
2023-08-09T10:10:44.215Z,98059.42
2023-08-09T10:13:15.578Z,98055.64
2023-08-09T10:16:06.322Z,98051.88
2023-08-09T10:18:40.147Z,98048.73
2023-08-09T10:21:11.403Z,98047.39
2023-08-09T10:23:38.166Z,98040.42
2023-08-09T10:26:05.159Z,98037.34
2023-08-09T10:28:42.715Z,98038.61
2023-08-09T10:31:10.658Z,98038.30
2023-08-09T10:33:42.982Z,98040.05
2023-08-09T10:36:14.301Z,98033.73
2023-08-09T10:38:48.240Z,98032.05
2023-08-09T10:41:16.992Z,98027.23
2023-08-09T10:43:44.672Z,98025.20
2023-08-09T10:46:24.822Z,98023.03
2023-08-09T10:48:53.647Z,98021.15
2023-08-09T10:51:25.206Z,98025.52
2023-08-09T10:54:01.372Z,98013.73
2023-08-09T10:56:43.322Z,98011.27
2023-08-09T10:59:14.013Z,98008.02
2023-08-09T11:01:43.029Z,98006.09
2023-08-09T11:04:13.639Z,98003.64
2023-08-09T11:06:41.756Z,97998.52
2023-08-09T11:09:13.023Z,97997.56
2023-08-09T11:11:43.072Z,97998.09
2023-08-09T11:14:11.464Z,97999.58
2023-08-09T11:16:39.505Z,97992.79
2023-08-09T11:19:23.894Z,97990.73
2023-08-09T11:21:57.368Z,97990.09
2023-08-09T11:24:25.042Z,97984.44
2023-08-09T11:26:56.961Z,97982.00
2023-08-09T11:29:26.748Z,97978.66
2023-08-09T11:31:59.464Z,97974.20
2023-08-09T11:34:30.032Z,97973.03
2023-08-09T11:36:57.285Z,97971.38
2023-08-09T11:39:26.174Z,97975.82
2023-08-09T11:41:56.891Z,97968.34
2023-08-09T11:44:31.549Z,97969.05
2023-08-09T11:47:01.652Z,97965.71
2023-08-09T11:49:30.277Z,97962.96
2023-08-09T11:51:57.823Z,97952.43
2023-08-09T11:54:26.276Z,97954.54
2023-08-09T11:56:54.126Z,97952.27
2023-08-09T11:59:23.678Z,97953.79
2023-08-09T12:01:54.500Z,97954.45
2023-08-09T12:04:24.077Z,97946.61
2023-08-09T12:06:56.243Z,97945.87
2023-08-09T12:09:43.034Z,97947.63
2023-08-09T12:12:16.878Z,97948.74
2023-08-09T12:14:51.964Z,97944.38
2023-08-09T12:17:23.558Z,97938.52
2023-08-09T12:19:52.378Z,97939.63
2023-08-09T12:22:20.154Z,97941.23
2023-08-09T12:24:47.163Z,97935.70
2023-08-09T12:27:15.222Z,97936.08
2023-08-09T12:29:42.989Z,97934.00
2023-08-09T12:32:09.989Z,97932.71
2023-08-09T12:34:36.906Z,97931.47
2023-08-09T12:37:04.909Z,97928.04
2023-08-09T12:39:32.549Z,97929.17
2023-08-09T12:41:59.917Z,97928.86
2023-08-09T12:44:26.979Z,97927.31
2023-08-09T12:46:54.417Z,97927.02
2023-08-09T12:49:22.680Z,97927.02
2023-08-09T12:51:49.515Z,97925.32
2023-08-09T12:54:17.339Z,97925.54
2023-08-09T12:56:44.521Z,97924.80
2023-08-09T12:59:11.533Z,97926.16
2023-08-09T13:01:38.622Z,97926.27
2023-08-09T13:04:09.219Z,97924.52
2023-08-09T13:06:42.063Z,97924.81
2023-08-09T13:09:09.192Z,97924.32
2023-08-09T13:11:36.099Z,97922.90
2023-08-09T13:14:05.977Z,97921.13
2023-08-09T13:16:33.184Z,97920.85
2023-08-09T13:19:00.547Z,97914.23
2023-08-09T13:21:27.496Z,97913.39
2023-08-09T13:23:54.433Z,97911.92
2023-08-09T13:26:21.488Z,97911.42
2023-08-09T13:28:48.288Z,97915.63
2023-08-09T13:31:15.492Z,97914.64
2023-08-09T13:33:42.634Z,97914.31
2023-08-09T13:36:09.573Z,97913.39
2023-08-09T13:38:41.980Z,97910.63
2023-08-09T13:41:10.131Z,97910.02
2023-08-09T13:43:37.769Z,97905.15
2023-08-09T13:46:06.772Z,97906.52
2023-08-09T13:48:34.876Z,97910.01
2023-08-09T13:51:01.908Z,97910.06
2023-08-09T13:53:28.866Z,97908.07
2023-08-09T13:55:55.920Z,97908.26
2023-08-09T13:58:22.851Z,97904.29
2023-08-09T14:00:50.674Z,97903.54
2023-08-09T14:03:17.948Z,97903.88
2023-08-09T14:05:45.109Z,97899.52
2023-08-09T14:08:12.270Z,97898.10
2023-08-09T14:10:41.737Z,97899.59
2023-08-09T14:13:09.318Z,97894.73
2023-08-09T14:15:36.394Z,97896.16
2023-08-09T14:18:06.290Z,97897.98
2023-08-09T14:20:35.928Z,97900.27
2023-08-09T14:23:03.083Z,97900.63
2023-08-09T14:25:30.086Z,97904.04
2023-08-09T14:27:56.874Z,97902.45
2023-08-09T14:30:24.019Z,97899.13
2023-08-09T14:32:51.266Z,97895.10
2023-08-09T14:35:20.458Z,97894.65
2023-08-09T14:37:47.414Z,97893.11
2023-08-09T14:40:14.460Z,97894.36
2023-08-09T14:42:42.344Z,97890.80
2023-08-09T14:45:11.989Z,97890.56
2023-08-09T14:47:40.308Z,97891.34
2023-08-09T14:50:09.588Z,97894.20
2023-08-09T14:52:36.672Z,97896.27
2023-08-09T14:55:04.174Z,97894.80
2023-08-09T14:57:33.516Z,97896.23
2023-08-09T15:00:00.614Z,97896.61
2023-08-09T15:02:27.740Z,97899.96
2023-08-09T15:04:54.624Z,97895.80
2023-08-09T15:07:22.942Z,97893.63
2023-08-09T15:09:49.851Z,97897.79
2023-08-09T15:12:17.120Z,97897.11
2023-08-09T15:14:45.229Z,97899.30
2023-08-09T15:19:42.454Z,97903.79
2023-08-09T15:22:10.140Z,97900.70
2023-08-09T15:24:36.953Z,97900.96
2023-08-09T15:27:04.339Z,97902.59
2023-08-09T15:29:32.499Z,97905.67
2023-08-09T15:31:59.290Z,97904.00
2023-08-09T15:34:26.749Z,97901.51
2023-08-09T15:36:54.038Z,97900.12
2023-08-09T15:39:21.238Z,97898.64
2023-08-09T15:41:48.291Z,97898.71
2023-08-09T15:44:17.383Z,97899.11
2023-08-09T15:46:44.602Z,97895.11
2023-08-09T15:49:11.710Z,97893.02
2023-08-09T15:51:39.403Z,97894.08
2023-08-09T15:54:06.667Z,97890.19
2023-08-09T15:56:33.627Z,97892.31
2023-08-09T15:59:00.445Z,97889.40
2023-08-09T16:01:28.047Z,97892.34
2023-08-09T16:03:55.019Z,97891.23
2023-08-09T16:06:21.990Z,97891.59
2023-08-09T16:08:48.722Z,97888.62
2023-08-09T16:11:15.662Z,97888.11
2023-08-09T16:13:42.625Z,97888.33
2023-08-09T16:16:20.174Z,97887.13
2023-08-09T16:18:51.297Z,97886.54
2023-08-09T16:21:18.157Z,97887.60
2023-08-09T16:23:44.958Z,97888.67
2023-08-09T16:26:12.124Z,97886.52
2023-08-09T16:28:40.638Z,97890.57
2023-08-09T16:31:07.500Z,97891.98
2023-08-09T16:33:35.155Z,97890.68
2023-08-09T16:36:02.075Z,97886.55
2023-08-09T16:38:29.014Z,97886.48
2023-08-09T16:40:55.940Z,97886.09
2023-08-09T16:43:22.903Z,97884.95
2023-08-09T16:45:49.742Z,97887.05
2023-08-09T16:48:16.669Z,97889.11
2023-08-09T16:50:43.491Z,97887.16
2023-08-09T16:53:10.653Z,97887.03
2023-08-09T16:55:37.592Z,97887.85
2023-08-09T16:58:04.402Z,97889.64
2023-08-09T17:00:31.464Z,97889.68
2023-08-09T17:02:58.467Z,97893.33
2023-08-09T17:05:25.848Z,97891.77
2023-08-09T17:07:52.785Z,97892.95
2023-08-09T17:10:19.646Z,97894.50
2023-08-09T17:12:46.519Z,97895.34
2023-08-09T17:15:13.391Z,97899.35
2023-08-09T17:17:40.812Z,97903.10
2023-08-09T17:20:09.595Z,97906.58
2023-08-09T17:22:37.503Z,97903.41
2023-08-09T17:25:04.747Z,97902.50
2023-08-09T17:27:32.131Z,97902.59
2023-08-09T17:29:59.269Z,97899.66
2023-08-09T17:32:26.141Z,97898.03
2023-08-09T17:34:53.083Z,97895.25
2023-08-09T17:37:20.202Z,97895.02
2023-08-09T17:39:48.447Z,97895.69
2023-08-09T17:42:15.416Z,97891.80
2023-08-09T17:44:42.294Z,97887.39
2023-08-09T17:47:12.613Z,97891.94
2023-08-09T17:49:39.955Z,97890.41
2023-08-09T17:52:07.239Z,97885.52
2023-08-09T17:54:34.737Z,97885.61
2023-08-09T17:57:03.604Z,97887.16
2023-08-09T17:59:33.688Z,97892.12
2023-08-09T18:02:00.640Z,97899.45
2023-08-09T18:04:27.606Z,97905.99
2023-08-09T18:06:55.164Z,97908.45
2023-08-09T18:09:22.143Z,97912.80
2023-08-09T18:11:49.034Z,97914.71
2023-08-09T18:14:16.036Z,97920.84
2023-08-09T18:16:45.411Z,97920.13
2023-08-09T18:19:13.902Z,97920.71
2023-08-09T18:21:40.852Z,97924.82
2023-08-09T18:24:08.880Z,97927.33
2023-08-09T18:26:35.902Z,97929.02
2023-08-09T18:29:04.457Z,97928.52
2023-08-09T18:31:32.564Z,97923.39
2023-08-09T18:33:59.617Z,97923.82
2023-08-09T18:36:26.349Z,97926.30
2023-08-09T18:38:53.561Z,97923.09
2023-08-09T18:41:21.058Z,97928.34
2023-08-09T18:43:48.206Z,97930.88
2023-08-09T18:46:15.325Z,97932.39
2023-08-09T18:48:42.283Z,97938.20
2023-08-09T18:51:09.219Z,97941.58
2023-08-09T18:53:36.178Z,97939.19
2023-08-09T18:56:03.436Z,97941.86
2023-08-09T18:58:30.564Z,97941.16
2023-08-09T19:00:57.723Z,97937.76
2023-08-09T19:03:24.692Z,97938.22
2023-08-09T19:05:51.646Z,97936.92
2023-08-09T19:08:18.546Z,97940.75
2023-08-09T19:10:46.176Z,97939.60
2023-08-09T19:13:13.456Z,97940.89
2023-08-09T19:15:40.452Z,97940.91
2023-08-09T19:18:07.334Z,97937.63
2023-08-09T19:20:35.074Z,97936.19
2023-08-09T19:23:01.987Z,97940.98
2023-08-09T19:25:29.679Z,97941.98
2023-08-09T19:27:57.769Z,97940.75
2023-08-09T19:30:27.250Z,97944.09
2023-08-09T19:32:54.798Z,97944.71
2023-08-09T19:35:21.922Z,97949.59
2023-08-09T19:37:49.164Z,97952.48
2023-08-09T19:40:15.967Z,97952.07
2023-08-09T19:42:42.981Z,97956.86
2023-08-09T19:45:12.548Z,97958.98
2023-08-09T19:47:39.635Z,97959.45
2023-08-09T19:50:08.397Z,97960.94
2023-08-09T19:52:35.204Z,97962.59
2023-08-09T19:55:02.135Z,97968.82
2023-08-09T19:57:29.545Z,97972.15
2023-08-09T19:59:56.370Z,97970.98
2023-08-09T20:02:24.553Z,97972.98
2023-08-09T20:04:51.582Z,97976.23
2023-08-09T20:07:18.380Z,97980.55
2023-08-09T20:09:45.344Z,97986.25
2023-08-09T20:12:12.411Z,97985.36
2023-08-09T20:14:39.258Z,97983.92
2023-08-09T20:17:06.715Z,97985.33
2023-08-09T20:19:33.883Z,97986.26
2023-08-09T20:22:00.653Z,97985.39
2023-08-09T20:24:41.741Z,97984.55
2023-08-09T20:27:10.162Z,97985.31
2023-08-09T20:29:38.122Z,97986.96
2023-08-09T20:32:06.881Z,97987.05
2023-08-09T20:34:34.759Z,97984.58
2023-08-09T20:37:03.979Z,97983.29
2023-08-09T20:39:32.454Z,97985.77
2023-08-09T20:42:00.113Z,97987.88
2023-08-09T20:44:27.863Z,97990.13
2023-08-09T20:46:54.812Z,97988.95
2023-08-09T20:49:23.754Z,97990.90
2023-08-09T20:51:50.571Z,97991.36
2023-08-09T20:54:17.591Z,97990.35
2023-08-09T20:56:44.639Z,97989.17
2023-08-09T20:59:11.430Z,97990.71
2023-08-09T21:01:41.239Z,97994.73
2023-08-09T21:04:08.991Z,97995.67
2023-08-09T21:06:35.936Z,97994.12
2023-08-09T21:09:05.354Z,97993.48
2023-08-09T21:11:32.151Z,97993.44
2023-08-09T21:13:58.881Z,97995.79
2023-08-09T21:16:25.857Z,97992.96
2023-08-09T21:18:52.878Z,97995.11
2023-08-09T21:23:53.766Z,97995.86
2023-08-09T21:26:38.480Z,97996.02
2023-08-09T21:29:06.951Z,97995.45
2023-08-09T21:31:33.824Z,97992.31
2023-08-09T21:34:00.667Z,97994.57
2023-08-09T21:36:27.388Z,97988.97
2023-08-09T21:38:54.111Z,97983.87
2023-08-09T21:41:21.025Z,97983.08
2023-08-09T21:43:47.798Z,97978.91
2023-08-09T21:46:14.751Z,97982.64
2023-08-09T21:48:41.681Z,97983.52
2023-08-09T21:51:08.829Z,97985.98
2023-08-09T21:53:36.442Z,97987.16
2023-08-09T21:56:03.617Z,97987.64
2023-08-09T21:58:30.512Z,97986.17
2023-08-09T22:00:57.585Z,97984.55
2023-08-09T22:03:24.539Z,97985.02
2023-08-09T22:05:53.603Z,97990.58
2023-08-09T22:08:20.432Z,97991.50
2023-08-09T22:10:47.352Z,97990.05
2023-08-09T22:13:15.315Z,97988.72
2023-08-09T22:15:42.800Z,97994.09
2023-08-09T22:18:16.432Z,98001.08
2023-08-09T22:20:45.195Z,98001.04
2023-08-09T22:23:12.830Z,98000.29
2023-08-09T22:25:39.665Z,98002.02
2023-08-09T22:28:08.977Z,98002.89
2023-08-09T22:30:36.468Z,98000.85
2023-08-09T22:33:03.634Z,97999.65
2023-08-09T22:35:31.107Z,98000.06
2023-08-09T22:37:58.112Z,97995.98
2023-08-09T22:40:26.259Z,97999.64
2023-08-09T22:42:53.260Z,97999.89
2023-08-09T22:45:20.349Z,98001.83
2023-08-09T22:47:47.369Z,98002.77
2023-08-09T22:50:15.096Z,98005.08
2023-08-09T22:52:42.051Z,98002.08
2023-08-09T22:55:09.419Z,98004.86
2023-08-09T22:57:36.762Z,98002.02
2023-08-09T23:00:07.512Z,98003.58
2023-08-09T23:02:34.717Z,98005.77
2023-08-09T23:05:01.693Z,98010.25
2023-08-09T23:07:28.652Z,98011.03
2023-08-09T23:09:58.124Z,98009.80
2023-08-09T23:12:24.993Z,98007.73
2023-08-09T23:14:52.000Z,98003.17
2023-08-09T23:17:19.168Z,98000.48
2023-08-09T23:19:46.120Z,98003.34
2023-08-09T23:22:12.912Z,98006.20
2023-08-09T23:24:40.382Z,98007.20
2023-08-09T23:27:07.357Z,98004.95
2023-08-09T23:29:34.990Z,98003.88
2023-08-09T23:32:02.643Z,98004.04
2023-08-09T23:34:29.563Z,98004.89
2023-08-09T23:36:56.504Z,98002.10
2023-08-09T23:39:24.137Z,97998.77
2023-08-09T23:41:50.859Z,97998.85
2023-08-09T23:44:17.768Z,97998.39
2023-08-09T23:46:44.721Z,97996.88
2023-08-09T23:49:11.625Z,97999.35
2023-08-09T23:51:38.503Z,97995.66
2023-08-09T23:54:05.570Z,97993.20
2023-08-09T23:56:32.400Z,97989.14
2023-08-09T23:58:59.241Z,97990.25
